createdAt,value
2023-04-11T00:01:36.447Z,100913.73
2023-04-11T00:04:03.628Z,100909.65
2023-04-11T00:06:33.201Z,100911.51
2023-04-11T00:09:01.705Z,100911.64
2023-04-11T00:11:29.417Z,100911.02
2023-04-11T00:13:58.170Z,100909.17
2023-04-11T00:16:26.215Z,100909.61
2023-04-11T00:18:53.934Z,100903.98
2023-04-11T00:21:20.922Z,100905.73
2023-04-11T00:23:48.649Z,100904.16
2023-04-11T00:26:15.781Z,100904.87
2023-04-11T00:28:43.965Z,100899.89
2023-04-11T00:31:11.899Z,100901.89
2023-04-11T00:33:40.496Z,100901.84
2023-04-11T00:36:08.613Z,100900.02
2023-04-11T00:38:37.656Z,100898.86
2023-04-11T00:41:10.252Z,100895.48
2023-04-11T00:43:49.023Z,100895.05
2023-04-11T00:46:16.689Z,100897.29
2023-04-11T00:48:43.565Z,100896.05
2023-04-11T00:51:23.382Z,100897.08
2023-04-11T00:53:50.592Z,100898.82
2023-04-11T00:56:17.744Z,100900.41
2023-04-11T00:58:45.046Z,100904.29
2023-04-11T01:01:12.103Z,100902.09
2023-04-11T01:03:39.418Z,100901.80
2023-04-11T01:06:09.623Z,100903.80
2023-04-11T01:08:37.814Z,100908.58
2023-04-11T01:11:06.232Z,100905.20
2023-04-11T01:13:33.638Z,100905.33
2023-04-11T01:16:03.380Z,100903.90
2023-04-11T01:18:31.202Z,100906.08
2023-04-11T01:20:59.875Z,100903.14
2023-04-11T01:23:27.393Z,100907.48
2023-04-11T01:25:54.328Z,100904.04
2023-04-11T01:28:22.281Z,100902.51
2023-04-11T01:30:49.272Z,100901.14
2023-04-11T01:33:17.574Z,100898.38
2023-04-11T01:35:45.436Z,100896.30
2023-04-11T01:38:12.952Z,100890.10
2023-04-11T01:40:40.008Z,100887.38
2023-04-11T01:43:08.746Z,100889.21
2023-04-11T01:45:35.982Z,100886.19
2023-04-11T01:48:06.971Z,100886.85
2023-04-11T01:50:35.357Z,100882.11
2023-04-11T01:53:02.246Z,100882.23
2023-04-11T01:55:33.561Z,100879.59
2023-04-11T01:58:00.801Z,100877.98
2023-04-11T02:00:27.785Z,100877.39
2023-04-11T02:02:55.122Z,100879.71
2023-04-11T02:05:23.201Z,100876.52
2023-04-11T02:07:50.278Z,100878.15
2023-04-11T02:10:18.162Z,100875.25
2023-04-11T02:12:45.603Z,100877.02
2023-04-11T02:15:18.322Z,100873.59
2023-04-11T02:17:46.440Z,100871.92
2023-04-11T02:20:13.810Z,100869.58
2023-04-11T02:22:47.072Z,100869.66
2023-04-11T02:25:16.289Z,100865.05
2023-04-11T02:27:43.115Z,100867.23
2023-04-11T02:30:13.015Z,100868.01
2023-04-11T02:32:42.366Z,100869.80
2023-04-11T02:35:10.574Z,100870.77
2023-04-11T02:37:38.797Z,100872.92
2023-04-11T02:40:07.569Z,100868.10
2023-04-11T02:42:39.946Z,100866.54
2023-04-11T02:45:08.284Z,100859.60
2023-04-11T02:47:35.375Z,100863.60
2023-04-11T02:50:06.970Z,100859.80
2023-04-11T02:52:41.510Z,100853.39
2023-04-11T02:55:09.423Z,100851.13
2023-04-11T02:57:37.200Z,100850.45
2023-04-11T03:00:08.997Z,100847.17
2023-04-11T03:02:49.003Z,100849.69
2023-04-11T03:05:19.423Z,100846.94
2023-04-11T03:07:48.019Z,100850.63
2023-04-11T03:10:23.749Z,100853.65
2023-04-11T03:12:50.981Z,100855.81
2023-04-11T03:15:17.781Z,100853.08
2023-04-11T03:17:46.111Z,100855.39
2023-04-11T03:20:19.000Z,100853.87
2023-04-11T03:22:47.969Z,100854.98
2023-04-11T03:25:14.765Z,100853.09
2023-04-11T03:27:42.441Z,100853.00
2023-04-11T03:30:15.873Z,100853.02
2023-04-11T03:32:45.978Z,100854.62
2023-04-11T03:35:14.311Z,100854.23
2023-04-11T03:37:44.881Z,100855.54
2023-04-11T03:40:12.212Z,100857.91
2023-04-11T03:42:41.469Z,100861.29
2023-04-11T03:45:09.977Z,100865.99
2023-04-11T03:47:38.939Z,100863.42
2023-04-11T03:50:07.089Z,100859.13
2023-04-11T03:52:38.377Z,100861.27
2023-04-11T03:55:10.135Z,100859.41
2023-04-11T03:57:37.063Z,100855.45
2023-04-11T04:00:09.503Z,100853.75
2023-04-11T04:03:06.649Z,100851.77
2023-04-11T04:05:34.409Z,100848.96
2023-04-11T04:08:05.883Z,100848.05
2023-04-11T04:10:46.470Z,100841.65
2023-04-11T04:13:13.574Z,100842.02
2023-04-11T04:15:50.913Z,100837.21
2023-04-11T04:18:18.868Z,100834.30
2023-04-11T04:20:47.252Z,100837.73
2023-04-11T04:23:17.495Z,100832.64
2023-04-11T04:25:57.675Z,100822.20
2023-04-11T04:28:33.178Z,100814.45
2023-04-11T04:31:03.415Z,100808.59
2023-04-11T04:33:42.142Z,100804.05
2023-04-11T04:36:24.440Z,100802.65
2023-04-11T04:38:52.302Z,100799.23
2023-04-11T04:41:22.354Z,100799.48
2023-04-11T04:43:57.620Z,100795.79
2023-04-11T04:46:36.830Z,100792.00
2023-04-11T04:49:05.455Z,100792.02
2023-04-11T04:51:32.469Z,100792.00
2023-04-11T04:54:07.442Z,100791.11
2023-04-11T04:56:35.457Z,100789.88
2023-04-11T04:59:04.710Z,100787.81
2023-04-11T05:01:34.764Z,100789.52
2023-04-11T05:04:03.342Z,100788.02
2023-04-11T05:06:52.801Z,100782.37
2023-04-11T05:09:27.715Z,100783.58
2023-04-11T05:11:58.842Z,100781.33
2023-04-11T05:14:25.709Z,100789.02
2023-04-11T05:16:53.251Z,100792.20
2023-04-11T05:19:20.497Z,100793.38
2023-04-11T05:21:48.367Z,100785.84
2023-04-11T05:24:16.094Z,100784.59
2023-04-11T05:26:43.690Z,100778.95
2023-04-11T05:29:11.071Z,100774.20
2023-04-11T05:31:41.560Z,100772.10
2023-04-11T05:34:08.622Z,100769.38
2023-04-11T05:36:36.197Z,100771.16
2023-04-11T05:39:04.046Z,100771.14
2023-04-11T05:41:31.356Z,100767.25
2023-04-11T05:43:58.357Z,100769.75
2023-04-11T05:46:27.157Z,100769.33
2023-04-11T05:48:53.941Z,100768.84
2023-04-11T05:51:25.945Z,100769.86
2023-04-11T05:53:54.837Z,100770.65
2023-04-11T05:56:22.349Z,100766.66
2023-04-11T05:58:51.731Z,100765.52
2023-04-11T06:01:19.372Z,100766.13
2023-04-11T06:03:46.595Z,100766.45
2023-04-11T06:06:15.229Z,100761.04
2023-04-11T06:08:42.978Z,100759.77
2023-04-11T06:11:10.618Z,100756.95
2023-04-11T06:13:41.888Z,100757.59
2023-04-11T06:16:09.060Z,100755.66
2023-04-11T06:18:35.975Z,100754.31
2023-04-11T06:21:06.801Z,100750.77
2023-04-11T06:23:34.268Z,100751.85
2023-04-11T06:26:01.092Z,100753.50
2023-04-11T06:28:29.059Z,100748.87
2023-04-11T06:30:56.625Z,100752.11
2023-04-11T06:33:24.285Z,100751.36
2023-04-11T06:35:51.283Z,100748.55
2023-04-11T06:38:18.709Z,100751.70
2023-04-11T06:40:46.387Z,100747.09
2023-04-11T06:43:14.360Z,100747.95
2023-04-11T06:45:41.207Z,100750.02
2023-04-11T06:48:08.006Z,100745.02
2023-04-11T06:50:41.203Z,100744.41
2023-04-11T06:53:11.280Z,100743.91
2023-04-11T06:55:39.927Z,100739.77
2023-04-11T06:58:06.741Z,100738.61
2023-04-11T07:00:34.044Z,100731.79
2023-04-11T07:03:07.086Z,100725.20
2023-04-11T07:05:39.444Z,100727.21
2023-04-11T07:08:09.347Z,100722.80
2023-04-11T07:10:36.297Z,100721.89
2023-04-11T07:13:03.183Z,100724.96
2023-04-11T07:15:31.470Z,100724.57
2023-04-11T07:17:59.494Z,100718.45
2023-04-11T07:20:26.859Z,100711.02
2023-04-11T07:22:56.174Z,100706.73
2023-04-11T07:25:29.923Z,100703.89
2023-04-11T07:27:57.171Z,100703.95
2023-04-11T07:30:24.675Z,100699.20
2023-04-11T07:33:02.547Z,100699.80
2023-04-11T07:35:31.002Z,100696.02
2023-04-11T07:37:57.931Z,100689.79
2023-04-11T07:40:24.760Z,100683.25
2023-04-11T07:42:51.769Z,100684.57
2023-04-11T07:45:19.309Z,100677.90
2023-04-11T07:47:47.529Z,100679.54
2023-04-11T07:50:15.392Z,100682.33
2023-04-11T07:52:42.234Z,100678.70
2023-04-11T07:55:09.721Z,100683.05
2023-04-11T07:57:36.796Z,100680.33
2023-04-11T08:00:06.364Z,100680.84
2023-04-11T08:02:40.228Z,100675.88
2023-04-11T08:05:09.384Z,100681.71
2023-04-11T08:07:36.967Z,100676.19
2023-04-11T08:10:05.189Z,100668.05
2023-04-11T08:12:33.966Z,100665.74
2023-04-11T08:15:06.518Z,100666.77
2023-04-11T08:17:37.321Z,100661.81
2023-04-11T08:20:08.199Z,100663.33
2023-04-11T08:22:46.302Z,100657.65
2023-04-11T08:25:13.894Z,100649.19
2023-04-11T08:27:40.888Z,100644.99
2023-04-11T08:30:08.396Z,100639.62
2023-04-11T08:32:35.680Z,100638.18
2023-04-11T08:35:03.189Z,100626.17
2023-04-11T08:37:30.761Z,100625.77
2023-04-11T08:39:57.584Z,100624.78
2023-04-11T08:42:25.921Z,100622.34
2023-04-11T08:44:56.850Z,100620.80
2023-04-11T08:47:24.936Z,100614.78
2023-04-11T08:49:52.205Z,100614.92
2023-04-11T08:52:19.505Z,100612.25
2023-04-11T08:54:47.921Z,100607.53
2023-04-11T08:57:28.005Z,100606.80
2023-04-11T08:59:55.707Z,100605.09
2023-04-11T09:02:22.906Z,100598.50
2023-04-11T09:04:50.973Z,100602.41
2023-04-11T09:07:18.694Z,100599.17
2023-04-11T09:09:45.960Z,100588.55
2023-04-11T09:12:14.035Z,100580.95
2023-04-11T09:14:42.485Z,100573.73
2023-04-11T09:17:12.861Z,100571.34
2023-04-11T09:19:41.406Z,100563.58
2023-04-11T09:22:08.342Z,100562.96
2023-04-11T09:24:37.001Z,100564.63
2023-04-11T09:27:11.252Z,100557.27
2023-04-11T09:29:44.985Z,100558.27
2023-04-11T09:32:31.795Z,100554.42
2023-04-11T09:35:22.182Z,100552.60
2023-04-11T09:37:54.440Z,100544.00
2023-04-11T09:40:22.996Z,100546.87
2023-04-11T09:42:56.718Z,100547.50
2023-04-11T09:45:24.863Z,100540.80
2023-04-11T09:47:55.452Z,100538.63
2023-04-11T09:50:22.950Z,100533.20
2023-04-11T09:52:57.077Z,100526.65
2023-04-11T09:55:26.716Z,100525.33
2023-04-11T09:57:54.091Z,100529.58
2023-04-11T10:00:28.724Z,100519.77
2023-04-11T10:02:56.457Z,100515.59
2023-04-11T10:05:27.382Z,100514.82
2023-04-11T10:08:04.626Z,100511.23
2023-04-11T10:10:31.633Z,100505.44
2023-04-11T10:12:58.896Z,100505.02
2023-04-11T10:15:26.561Z,100506.21
2023-04-11T10:18:11.106Z,100500.59
2023-04-11T10:20:43.065Z,100498.94
2023-04-11T10:23:10.721Z,100493.85
2023-04-11T10:25:54.734Z,100493.64
2023-04-11T10:28:38.554Z,100485.11
2023-04-11T10:31:06.966Z,100484.27
2023-04-11T10:33:34.369Z,100477.08
2023-04-11T10:36:03.109Z,100471.42
2023-04-11T10:38:36.552Z,100468.84
2023-04-11T10:41:32.977Z,100469.23
2023-04-11T10:44:17.752Z,100468.31
2023-04-11T10:46:48.978Z,100466.80
2023-04-11T10:49:38.416Z,100457.91
2023-04-11T10:52:21.094Z,100454.46
2023-04-11T10:54:52.480Z,100451.23
2023-04-11T10:57:27.971Z,100446.91
2023-04-11T10:59:56.463Z,100446.49
2023-04-11T11:02:24.099Z,100448.77
2023-04-11T11:04:51.916Z,100448.53
2023-04-11T11:07:18.895Z,100450.19
2023-04-11T11:09:50.392Z,100449.75
2023-04-11T11:12:17.250Z,100447.84
2023-04-11T11:14:45.601Z,100445.58
2023-04-11T11:17:13.098Z,100441.20
2023-04-11T11:19:44.504Z,100434.79
2023-04-11T11:22:17.099Z,100435.45
2023-04-11T11:24:44.726Z,100433.78
2023-04-11T11:27:19.420Z,100427.25
2023-04-11T11:29:46.348Z,100425.09
2023-04-11T11:32:24.744Z,100420.33
2023-04-11T11:34:52.461Z,100418.15
2023-04-11T11:37:20.531Z,100417.00
2023-04-11T11:39:47.846Z,100413.64
2023-04-11T11:42:15.149Z,100416.61
2023-04-11T11:44:42.225Z,100412.47
2023-04-11T11:47:16.952Z,100410.58
2023-04-11T11:49:44.922Z,100407.77
2023-04-11T11:52:17.244Z,100404.59
2023-04-11T11:54:48.065Z,100401.65
2023-04-11T11:57:22.118Z,100396.27
2023-04-11T11:59:55.772Z,100392.04
2023-04-11T12:02:23.140Z,100388.69
2023-04-11T12:05:03.596Z,100385.80
2023-04-11T12:07:36.217Z,100380.47
2023-04-11T12:10:08.235Z,100374.32
2023-04-11T12:12:36.153Z,100376.33
2023-04-11T12:15:10.621Z,100373.26
2023-04-11T12:17:38.135Z,100375.54
2023-04-11T12:20:10.003Z,100373.19
2023-04-11T12:22:37.343Z,100361.18
2023-04-11T12:25:08.084Z,100357.14
2023-04-11T12:27:39.297Z,100358.85
2023-04-11T12:30:07.350Z,100350.55
2023-04-11T12:32:41.250Z,100348.86
2023-04-11T12:35:08.619Z,100348.56
2023-04-11T12:37:35.744Z,100343.49
2023-04-11T12:40:09.678Z,100336.90
2023-04-11T12:42:48.945Z,100336.72
2023-04-11T12:45:22.685Z,100332.70
2023-04-11T12:47:49.985Z,100327.42
2023-04-11T12:50:23.224Z,100323.08
2023-04-11T12:52:53.796Z,100326.09
2023-04-11T12:55:21.887Z,100325.55
2023-04-11T12:57:51.460Z,100317.42
2023-04-11T13:00:18.985Z,100315.08
2023-04-11T13:02:48.045Z,100317.97
2023-04-11T13:05:16.663Z,100312.25
2023-04-11T13:07:44.615Z,100311.70
2023-04-11T13:10:13.085Z,100307.83
2023-04-11T13:12:41.001Z,100300.01
2023-04-11T13:15:11.328Z,100292.11
2023-04-11T13:17:38.341Z,100297.13
2023-04-11T13:20:09.561Z,100290.89
2023-04-11T13:22:40.813Z,100286.97
2023-04-11T13:25:08.109Z,100284.73
2023-04-11T13:27:36.746Z,100277.59
2023-04-11T13:30:06.048Z,100280.61
2023-04-11T13:32:35.286Z,100277.61
2023-04-11T13:35:03.535Z,100276.17
2023-04-11T13:37:31.101Z,100275.65
2023-04-11T13:39:58.254Z,100272.56
2023-04-11T13:42:27.474Z,100269.21
2023-04-11T13:44:54.740Z,100264.83
2023-04-11T13:47:21.540Z,100262.33
2023-04-11T13:49:48.503Z,100258.46
2023-04-11T13:52:15.630Z,100252.45
2023-04-11T13:54:45.369Z,100248.66
2023-04-11T13:57:14.294Z,100251.27
2023-04-11T13:59:41.148Z,100253.52
2023-04-11T14:02:09.176Z,100251.02
2023-04-11T14:04:36.680Z,100252.06
2023-04-11T14:07:03.610Z,100249.70
2023-04-11T14:09:34.673Z,100249.21
2023-04-11T14:12:01.700Z,100245.77
2023-04-11T14:14:32.596Z,100240.11
2023-04-11T14:16:59.951Z,100237.67
2023-04-11T14:19:52.290Z,100235.14
2023-04-11T14:22:19.148Z,100235.03
2023-04-11T14:24:46.117Z,100233.65
2023-04-11T14:27:16.189Z,100227.81
2023-04-11T14:29:44.465Z,100218.88
2023-04-11T14:32:11.402Z,100220.61
2023-04-11T14:34:39.111Z,100224.30
2023-04-11T14:37:06.375Z,100225.00
2023-04-11T14:39:39.297Z,100223.16
2023-04-11T14:42:06.592Z,100223.63
2023-04-11T14:44:34.967Z,100225.70
2023-04-11T14:47:01.985Z,100222.86
2023-04-11T14:49:29.146Z,100224.16
2023-04-11T14:52:01.725Z,100225.45
2023-04-11T14:54:28.887Z,100225.54
2023-04-11T14:56:57.156Z,100220.70
2023-04-11T14:59:24.712Z,100223.91
2023-04-11T15:01:52.512Z,100221.27
2023-04-11T15:04:19.979Z,100216.83
2023-04-11T15:06:47.840Z,100219.80
2023-04-11T15:09:19.703Z,100215.21
2023-04-11T15:11:46.809Z,100213.42
2023-04-11T15:14:18.624Z,100211.30
2023-04-11T15:16:47.814Z,100210.85
2023-04-11T15:19:14.957Z,100212.23
2023-04-11T15:21:46.120Z,100207.63
2023-04-11T15:24:16.690Z,100209.30
2023-04-11T15:26:46.650Z,100208.14
2023-04-11T15:29:17.206Z,100207.71
2023-04-11T15:31:46.232Z,100208.23
2023-04-11T15:34:13.600Z,100205.36
2023-04-11T15:36:45.278Z,100202.20
2023-04-11T15:39:12.315Z,100205.67
2023-04-11T15:41:39.096Z,100203.58
2023-04-11T15:44:06.184Z,100202.73
2023-04-11T15:46:33.419Z,100200.61
2023-04-11T15:49:07.252Z,100198.95
2023-04-11T15:51:34.197Z,100196.11
2023-04-11T15:54:01.210Z,100195.89
2023-04-11T15:56:28.141Z,100189.45
2023-04-11T15:58:55.055Z,100184.19
2023-04-11T16:01:26.010Z,100181.48
2023-04-11T16:03:59.271Z,100178.55
2023-04-11T16:06:26.772Z,100175.05
2023-04-11T16:08:54.222Z,100175.57
2023-04-11T16:11:26.313Z,100174.15
2023-04-11T16:13:54.484Z,100175.20
2023-04-11T16:16:21.645Z,100176.98
2023-04-11T16:18:50.530Z,100178.18
2023-04-11T16:21:17.691Z,100178.07
2023-04-11T16:23:48.363Z,100183.09
2023-04-11T16:26:15.687Z,100182.64
2023-04-11T16:28:42.574Z,100188.70
2023-04-11T16:31:09.504Z,100180.83
2023-04-11T16:33:37.316Z,100180.66
2023-04-11T16:36:04.545Z,100176.95
2023-04-11T16:38:31.596Z,100180.30
2023-04-11T16:41:00.112Z,100178.82
2023-04-11T16:43:26.997Z,100176.38
2023-04-11T16:45:54.066Z,100180.10
2023-04-11T16:48:21.041Z,100177.58
2023-04-11T16:50:48.094Z,100172.61
2023-04-11T16:53:16.914Z,100172.84
2023-04-11T16:55:45.345Z,100169.36
2023-04-11T16:58:12.271Z,100170.77
2023-04-11T17:00:40.704Z,100167.40
2023-04-11T17:03:08.231Z,100163.95
2023-04-11T17:05:35.467Z,100164.45
2023-04-11T17:08:05.754Z,100169.59
2023-04-11T17:10:33.337Z,100170.73
2023-04-11T17:13:00.521Z,100165.52
2023-04-11T17:15:27.396Z,100165.97
2023-04-11T17:17:55.248Z,100169.59
2023-04-11T17:20:23.095Z,100169.62
2023-04-11T17:22:51.242Z,100171.89
2023-04-11T17:25:18.637Z,100172.71
2023-04-11T17:27:49.026Z,100171.10
2023-04-11T17:30:16.201Z,100175.34
2023-04-11T17:32:46.443Z,100182.55
2023-04-11T17:35:13.898Z,100183.05
2023-04-11T17:37:41.002Z,100186.05
2023-04-11T17:40:12.661Z,100191.72
2023-04-11T17:42:40.930Z,100191.25
2023-04-11T17:45:17.840Z,100186.06
2023-04-11T17:47:47.017Z,100183.71
2023-04-11T17:50:15.801Z,100182.48
2023-04-11T17:52:43.993Z,100183.88
2023-04-11T17:55:14.639Z,100189.55
2023-04-11T17:57:42.212Z,100190.40
2023-04-11T18:00:22.756Z,100191.11
2023-04-11T18:02:57.076Z,100189.35
2023-04-11T18:05:26.112Z,100183.75
2023-04-11T18:07:58.647Z,100174.49
2023-04-11T18:10:27.003Z,100171.35
2023-04-11T18:12:55.930Z,100164.84
2023-04-11T18:15:27.408Z,100168.45
2023-04-11T18:17:54.938Z,100165.23
2023-04-11T18:20:22.017Z,100161.98
2023-04-11T18:22:55.618Z,100160.48
2023-04-11T18:25:22.724Z,100161.10
2023-04-11T18:27:49.944Z,100160.98
2023-04-11T18:30:16.833Z,100157.41
2023-04-11T18:32:50.156Z,100156.53
2023-04-11T18:35:17.979Z,100155.11
2023-04-11T18:37:46.595Z,100150.88
2023-04-11T18:40:13.671Z,100148.21
2023-04-11T18:42:46.689Z,100142.30
2023-04-11T18:45:13.795Z,100135.75
2023-04-11T18:47:41.862Z,100131.09
2023-04-11T18:50:09.889Z,100120.02
2023-04-11T18:52:37.123Z,100120.05
2023-04-11T18:55:04.383Z,100114.24
2023-04-11T18:57:34.414Z,100114.36
2023-04-11T19:00:14.948Z,100107.98
2023-04-11T19:02:49.957Z,100106.08
2023-04-11T19:05:18.885Z,100096.80
2023-04-11T19:07:47.578Z,100093.61
2023-04-11T19:10:15.627Z,100089.38
2023-04-11T19:12:44.942Z,100088.55
2023-04-11T19:15:19.208Z,100084.06
2023-04-11T19:17:47.186Z,100086.34
2023-04-11T19:20:15.957Z,100082.67
2023-04-11T19:22:45.728Z,100083.59
2023-04-11T19:25:14.065Z,100080.49
2023-04-11T19:27:42.046Z,100086.19
2023-04-11T19:30:10.741Z,100079.05
2023-04-11T19:32:56.558Z,100073.58
2023-04-11T19:35:24.720Z,100065.39
2023-04-11T19:37:52.624Z,100068.55
2023-04-11T19:40:22.669Z,100068.30
2023-04-11T19:42:50.733Z,100064.54
2023-04-11T19:45:18.631Z,100070.96
2023-04-11T19:47:46.784Z,100067.68
2023-04-11T19:50:14.208Z,100068.45
2023-04-11T19:52:42.268Z,100064.86
2023-04-11T19:55:10.399Z,100064.15
2023-04-11T19:57:43.193Z,100062.02
2023-04-11T20:00:16.558Z,100057.06
2023-04-11T20:02:45.438Z,100051.74
2023-04-11T20:05:17.801Z,100047.45
2023-04-11T20:07:46.570Z,100042.77
2023-04-11T20:10:18.340Z,100042.10
2023-04-11T20:12:46.423Z,100041.85
2023-04-11T20:15:14.374Z,100048.02
2023-04-11T20:17:45.904Z,100046.02
2023-04-11T20:20:14.853Z,100045.62
2023-04-11T20:22:44.126Z,100040.77
2023-04-11T20:25:11.546Z,100039.35
2023-04-11T20:27:40.914Z,100037.54
2023-04-11T20:30:10.003Z,100042.45
2023-04-11T20:32:38.121Z,100037.05
2023-04-11T20:35:05.959Z,100036.24
2023-04-11T20:37:34.528Z,100036.45
2023-04-11T20:40:01.878Z,100034.36
2023-04-11T20:42:31.150Z,100034.18
2023-04-11T20:45:15.748Z,100028.04
2023-04-11T20:47:47.112Z,100029.77
2023-04-11T20:50:15.194Z,100030.79
2023-04-11T20:52:45.164Z,100035.32
2023-04-11T20:55:13.925Z,100030.70
2023-04-11T20:57:40.991Z,100030.70
2023-04-11T21:00:18.080Z,100030.15
2023-04-11T21:02:50.584Z,100034.16
2023-04-11T21:05:19.136Z,100033.20
2023-04-11T21:07:54.815Z,100026.98
2023-04-11T21:10:22.201Z,100023.32
2023-04-11T21:12:50.827Z,100018.35
2023-04-11T21:15:19.557Z,100020.61
2023-04-11T21:17:47.102Z,100018.85
2023-04-11T21:20:17.096Z,100016.61
2023-04-11T21:22:55.105Z,100006.20
2023-04-11T21:25:22.712Z,100003.70
2023-04-11T21:27:49.689Z,100003.30
2023-04-11T21:30:16.535Z,99996.32
2023-04-11T21:32:46.090Z,99992.03
2023-04-11T21:35:13.013Z,99991.88
2023-04-11T21:37:39.879Z,99989.06
2023-04-11T21:40:13.393Z,99983.81
2023-04-11T21:42:41.049Z,99982.12
2023-04-11T21:45:08.220Z,99974.29
2023-04-11T21:47:35.382Z,99971.02
2023-04-11T21:50:02.389Z,99965.67
2023-04-11T21:52:37.522Z,99962.80
2023-04-11T21:55:08.567Z,99961.68
2023-04-11T21:57:35.880Z,99967.46
2023-04-11T22:00:04.272Z,99960.73
2023-04-11T22:02:39.719Z,99957.56
2023-04-11T22:05:08.734Z,99955.20
2023-04-11T22:07:38.146Z,99950.85
2023-04-11T22:10:09.012Z,99943.77
2023-04-11T22:12:37.395Z,99934.54
2023-04-11T22:15:04.814Z,99925.73
2023-04-11T22:17:32.645Z,99926.39
2023-04-11T22:19:59.785Z,99925.60
2023-04-11T22:22:29.683Z,99922.73
2023-04-11T22:24:59.310Z,99920.20
2023-04-11T22:27:26.672Z,99919.72
2023-04-11T22:29:57.233Z,99918.70
2023-04-11T22:32:24.636Z,99917.71
2023-04-11T22:34:51.521Z,99910.83
2023-04-11T22:37:18.656Z,99903.41
2023-04-11T22:39:45.455Z,99899.19
2023-04-11T22:42:12.758Z,99894.41
2023-04-11T22:44:40.307Z,99889.14
2023-04-11T22:47:10.602Z,99885.17
2023-04-11T22:49:42.280Z,99880.27
2023-04-11T22:52:10.054Z,99875.60
2023-04-11T22:54:37.919Z,99873.94
2023-04-11T22:57:04.822Z,99872.14
2023-04-11T22:59:33.211Z,99864.04
2023-04-11T23:02:01.094Z,99861.72
2023-04-11T23:04:28.081Z,99854.76
2023-04-11T23:06:57.582Z,99849.63
2023-04-11T23:09:24.623Z,99849.21
2023-04-11T23:11:52.837Z,99846.16
2023-04-11T23:14:21.597Z,99844.54
2023-04-11T23:16:48.715Z,99839.52
2023-04-11T23:19:16.500Z,99838.84
2023-04-11T23:21:43.999Z,99828.44
2023-04-11T23:24:10.791Z,99820.30
2023-04-11T23:26:37.704Z,99819.31
2023-04-11T23:29:04.846Z,99813.95
2023-04-11T23:31:33.133Z,99808.80
2023-04-11T23:34:00.363Z,99805.94
2023-04-11T23:36:28.435Z,99799.39
2023-04-11T23:38:56.112Z,99799.50
2023-04-11T23:41:35.193Z,99798.95
2023-04-11T23:44:01.965Z,99793.16
2023-04-11T23:46:29.119Z,99791.80
2023-04-11T23:48:56.414Z,99790.41
2023-04-11T23:51:23.572Z,99784.34
2023-04-11T23:54:01.125Z,99790.11
2023-04-11T23:56:29.155Z,99791.42
2023-04-11T23:58:55.906Z,99792.33
